Washita, Oklahoma
Current Conditions -  °F | °C
As of 8:58 PM on Wednesday 22 Oct 2014 (Local Time) from KFSI Reporting Station
Few Clouds Few Clouds  
Wind Chill: 18°   Ceiling: Unl
Heat Index: 18°   Visibility: 10mi
Dew Point: 17°   Wind: 3mph
Humidity: 94%   Direction: 30°NNE
Pressure: 30.1"   Gusts: NA
Location:  35.1°N, 98.34°W
Report Text: KFSI 230158Z AUTO 03003KT 10SM FEW040 18/17 A3010 RMK AO2 RAB0127E0145DZB0112E0123 SLP190 P0000 T01780169
Loading
Personal Weather Stations






























Interactive Weather Map
Tropical Storm Tracking
New forecast layout! Learn more

10-Day Weather Forecast

Advertisements
Track Severe Weather on mobile